createdAt,value
2023-05-29T00:01:33.933Z,4.07
2023-05-29T00:04:00.791Z,4.15
2023-05-29T00:06:28.033Z,4.10
2023-05-29T00:08:54.735Z,3.75
2023-05-29T00:11:21.804Z,3.40
2023-05-29T00:13:48.552Z,3.10
2023-05-29T00:16:15.355Z,3.35
2023-05-29T00:18:46.301Z,3.90
2023-05-29T00:21:14.700Z,3.42
2023-05-29T00:23:41.612Z,3.22
2023-05-29T00:26:08.687Z,3.75
2023-05-29T00:28:37.186Z,2.97
2023-05-29T00:31:03.960Z,3.45
2023-05-29T00:33:30.705Z,3.38
2023-05-29T00:35:57.485Z,3.40
2023-05-29T00:38:24.195Z,3.45
2023-05-29T00:40:51.026Z,3.08
2023-05-29T00:43:17.807Z,3.00
2023-05-29T00:45:44.561Z,3.10
2023-05-29T00:48:11.566Z,3.08
2023-05-29T00:50:38.879Z,3.70
2023-05-29T00:53:07.204Z,3.45
2023-05-29T00:55:34.525Z,2.58
2023-05-29T00:58:01.581Z,3.20
2023-05-29T01:00:28.651Z,2.90
2023-05-29T01:02:57.328Z,3.08
2023-05-29T01:05:24.377Z,3.00
2023-05-29T01:07:51.296Z,2.90
2023-05-29T01:10:18.759Z,3.10
2023-05-29T01:12:55.662Z,3.47
2023-05-29T01:15:45.100Z,3.10
2023-05-29T01:18:33.343Z,3.20
2023-05-29T01:21:17.406Z,3.13
2023-05-29T01:24:09.178Z,3.13
2023-05-29T01:26:53.171Z,2.65
2023-05-29T01:29:24.273Z,2.80
2023-05-29T01:34:18.333Z,3.85
2023-05-29T01:36:45.201Z,2.88
2023-05-29T01:39:12.073Z,3.08
2023-05-29T01:41:39.413Z,3.00
2023-05-29T01:44:10.336Z,3.42
2023-05-29T01:46:42.109Z,3.15
2023-05-29T01:49:10.289Z,3.00
2023-05-29T01:51:37.142Z,3.17
2023-05-29T01:54:04.603Z,2.90
2023-05-29T01:56:32.377Z,3.05
2023-05-29T01:59:01.975Z,2.95
2023-05-29T02:01:28.878Z,3.00
2023-05-29T02:03:55.747Z,3.05
2023-05-29T02:06:22.581Z,2.80
2023-05-29T02:08:49.356Z,3.20
2023-05-29T02:11:16.343Z,2.83
2023-05-29T02:13:43.649Z,3.38
2023-05-29T02:16:10.642Z,3.25
2023-05-29T02:18:37.631Z,3.15
2023-05-29T02:21:04.392Z,2.90
2023-05-29T02:23:31.258Z,2.72
2023-05-29T02:25:58.009Z,2.80
2023-05-29T02:28:24.736Z,2.85
2023-05-29T02:30:52.243Z,2.90
2023-05-29T02:33:19.073Z,3.13
2023-05-29T02:35:45.879Z,3.05
2023-05-29T02:38:12.662Z,2.63
2023-05-29T02:40:39.473Z,3.00
2023-05-29T02:43:07.542Z,3.15
2023-05-29T02:45:34.276Z,2.40
2023-05-29T02:48:01.136Z,2.75
2023-05-29T02:50:29.324Z,2.33
2023-05-29T02:52:56.290Z,2.85
2023-05-29T02:55:23.110Z,2.45
2023-05-29T02:57:53.903Z,2.80
2023-05-29T03:00:21.769Z,2.42
2023-05-29T03:02:48.546Z,2.40
2023-05-29T03:05:15.723Z,3.10
2023-05-29T03:07:42.823Z,2.63
2023-05-29T03:10:10.826Z,2.60
2023-05-29T03:12:37.738Z,2.63
2023-05-29T03:15:04.961Z,2.63
2023-05-29T03:17:31.666Z,2.38
2023-05-29T03:19:58.699Z,2.75
2023-05-29T03:22:25.369Z,2.63
2023-05-29T03:24:52.505Z,2.50
2023-05-29T03:27:19.274Z,2.75
2023-05-29T03:29:46.283Z,2.90
2023-05-29T03:32:13.016Z,2.22
2023-05-29T03:34:41.029Z,2.70
2023-05-29T03:37:07.759Z,2.10
2023-05-29T03:39:34.454Z,2.20
2023-05-29T03:42:01.289Z,2.58
2023-05-29T03:44:28.010Z,2.78
2023-05-29T03:46:54.819Z,2.53
2023-05-29T03:49:21.660Z,2.65
2023-05-29T03:51:48.334Z,2.70
2023-05-29T03:54:15.176Z,2.53
2023-05-29T03:56:42.081Z,2.30
2023-05-29T03:59:09.071Z,2.10
2023-05-29T04:01:36.053Z,2.30
2023-05-29T04:04:03.016Z,2.50
2023-05-29T04:06:30.034Z,2.65
2023-05-29T04:08:56.761Z,2.20
2023-05-29T04:11:23.804Z,2.78
2023-05-29T04:13:50.900Z,3.00
2023-05-29T04:16:17.771Z,2.97
2023-05-29T04:18:44.805Z,2.80
2023-05-29T04:21:12.408Z,3.05
2023-05-29T04:23:39.194Z,3.20
2023-05-29T04:26:06.805Z,2.95
2023-05-29T04:28:33.634Z,3.53
2023-05-29T04:31:01.551Z,3.03
2023-05-29T04:33:29.556Z,3.03
2023-05-29T04:35:56.455Z,3.00
2023-05-29T04:38:26.179Z,3.08
2023-05-29T04:40:53.767Z,2.43
2023-05-29T04:43:20.492Z,2.70
2023-05-29T04:45:47.231Z,2.65
2023-05-29T04:48:14.056Z,3.05
2023-05-29T04:50:40.791Z,2.60
2023-05-29T04:53:07.469Z,2.63
2023-05-29T04:55:34.180Z,3.22
2023-05-29T04:58:01.364Z,2.90
2023-05-29T05:00:28.125Z,3.15
2023-05-29T05:02:55.003Z,3.15
2023-05-29T05:05:22.004Z,2.97
2023-05-29T05:07:48.711Z,2.80
2023-05-29T05:10:15.752Z,3.15
2023-05-29T05:12:42.426Z,2.85
2023-05-29T05:15:09.921Z,2.80
2023-05-29T05:17:36.742Z,3.40
2023-05-29T05:20:05.825Z,3.60
2023-05-29T05:22:33.095Z,3.22
2023-05-29T05:25:01.633Z,3.13
2023-05-29T05:27:28.754Z,3.20
2023-05-29T05:29:55.889Z,3.50
2023-05-29T05:32:23.144Z,2.90
2023-05-29T05:34:50.288Z,3.25
2023-05-29T05:37:17.509Z,3.03
2023-05-29T05:39:44.709Z,2.90
2023-05-29T05:42:11.848Z,2.97
2023-05-29T05:44:38.962Z,2.90
2023-05-29T05:47:06.279Z,2.78
2023-05-29T05:49:33.378Z,2.67
2023-05-29T05:52:00.538Z,2.50
2023-05-29T05:54:27.702Z,2.50
2023-05-29T05:56:54.800Z,2.08
2023-05-29T05:59:21.949Z,2.65
2023-05-29T06:01:49.136Z,2.50
2023-05-29T06:04:16.463Z,2.50
2023-05-29T06:06:43.709Z,2.50
2023-05-29T06:09:12.231Z,2.45
2023-05-29T06:11:39.788Z,2.47
2023-05-29T06:14:07.252Z,2.50
2023-05-29T06:16:35.836Z,2.60
2023-05-29T06:19:03.320Z,2.00
2023-05-29T06:21:30.414Z,2.33
2023-05-29T06:23:57.589Z,2.30
2023-05-29T06:26:26.135Z,2.60
2023-05-29T06:28:54.798Z,2.72
2023-05-29T06:31:22.075Z,2.75
2023-05-29T06:33:49.265Z,2.80
2023-05-29T06:36:17.118Z,2.85
2023-05-29T06:38:50.453Z,2.80
2023-05-29T06:41:17.650Z,2.83
2023-05-29T06:43:44.827Z,3.20
2023-05-29T06:46:12.493Z,2.92
2023-05-29T06:48:39.742Z,2.53
2023-05-29T06:51:09.777Z,3.50
2023-05-29T06:53:37.364Z,4.20
2023-05-29T06:56:04.691Z,2.72
2023-05-29T06:58:32.056Z,2.88
2023-05-29T07:01:02.268Z,2.10
2023-05-29T07:03:31.597Z,2.10
2023-05-29T07:05:58.754Z,2.42
2023-05-29T07:08:26.672Z,1.98
2023-05-29T07:10:54.055Z,1.80
2023-05-29T07:13:21.376Z,2.03
2023-05-29T07:15:49.922Z,2.10
2023-05-29T07:18:17.141Z,2.20
2023-05-29T07:20:44.315Z,2.47
2023-05-29T07:23:11.502Z,2.10
2023-05-29T07:25:38.764Z,2.22
2023-05-29T07:28:21.268Z,2.47
2023-05-29T07:30:49.490Z,2.67
2023-05-29T07:33:16.629Z,2.22
2023-05-29T07:35:43.826Z,3.13
2023-05-29T07:38:11.003Z,2.70
2023-05-29T07:40:40.091Z,2.63
2023-05-29T07:43:08.696Z,2.97
2023-05-29T07:45:36.197Z,2.58
2023-05-29T07:48:03.393Z,2.90
2023-05-29T07:50:30.636Z,2.25
2023-05-29T07:52:58.193Z,2.50
2023-05-29T07:55:25.350Z,2.38
2023-05-29T07:57:52.459Z,2.53
2023-05-29T08:00:19.708Z,2.53
2023-05-29T08:02:47.154Z,2.92
2023-05-29T08:05:14.795Z,2.90
2023-05-29T08:07:42.405Z,2.50
2023-05-29T08:10:09.686Z,2.60
2023-05-29T08:12:36.853Z,2.50
2023-05-29T08:15:04.664Z,2.75
2023-05-29T08:17:31.932Z,2.40
2023-05-29T08:19:59.084Z,2.50
2023-05-29T08:22:32.862Z,2.50
2023-05-29T08:24:59.974Z,2.22
2023-05-29T08:27:27.063Z,2.20
2023-05-29T08:29:55.616Z,2.25
2023-05-29T08:32:22.761Z,2.45
2023-05-29T08:34:51.011Z,2.42
2023-05-29T08:37:18.594Z,2.08
2023-05-29T08:39:45.975Z,2.03
2023-05-29T08:42:23.307Z,2.30
2023-05-29T08:44:50.924Z,2.33
2023-05-29T08:47:21.567Z,2.08
2023-05-29T08:49:54.302Z,2.15
2023-05-29T08:52:22.206Z,2.25
2023-05-29T08:54:49.507Z,2.28
2023-05-29T08:57:16.770Z,2.15
2023-05-29T08:59:45.018Z,2.38
2023-05-29T09:02:13.037Z,2.20
2023-05-29T09:04:40.348Z,2.08
2023-05-29T09:07:10.050Z,1.90
2023-05-29T09:09:37.802Z,2.20
2023-05-29T09:12:05.342Z,1.83
2023-05-29T09:14:35.497Z,2.22
2023-05-29T09:17:03.443Z,1.90
2023-05-29T09:19:30.797Z,1.92
2023-05-29T09:22:05.258Z,1.90
2023-05-29T09:24:34.178Z,1.83
2023-05-29T09:27:02.113Z,2.03
2023-05-29T09:29:32.252Z,1.85
2023-05-29T09:32:00.635Z,1.67
2023-05-29T09:34:29.531Z,1.93
2023-05-29T09:37:08.866Z,1.67
2023-05-29T09:39:48.311Z,1.88
2023-05-29T09:42:18.564Z,1.80
2023-05-29T09:44:54.489Z,1.67
2023-05-29T09:47:22.074Z,1.70
2023-05-29T09:49:49.209Z,1.88
2023-05-29T09:52:16.972Z,2.05
2023-05-29T09:54:48.491Z,2.10
2023-05-29T09:57:16.377Z,2.10
2023-05-29T09:59:46.195Z,1.63
2023-05-29T10:02:15.055Z,2.10
2023-05-29T10:04:42.553Z,2.00
2023-05-29T10:07:36.273Z,2.28
2023-05-29T10:10:06.068Z,1.63
2023-05-29T10:12:40.671Z,1.90
2023-05-29T10:15:13.096Z,1.75
2023-05-29T10:17:41.634Z,1.80
2023-05-29T10:20:10.859Z,1.65
2023-05-29T10:22:41.613Z,1.73
2023-05-29T10:27:35.980Z,1.83
2023-05-29T10:30:22.309Z,1.50
2023-05-29T10:33:06.213Z,1.70
2023-05-29T10:35:40.938Z,2.97
2023-05-29T10:38:19.461Z,3.58
2023-05-29T10:40:46.908Z,1.60
2023-05-29T10:43:36.358Z,1.80
2023-05-29T10:46:03.984Z,1.95
2023-05-29T10:48:38.027Z,1.83
2023-05-29T10:51:08.022Z,1.52
2023-05-29T10:53:35.716Z,1.50
2023-05-29T10:56:04.516Z,1.60
2023-05-29T10:58:31.970Z,1.42
2023-05-29T11:00:59.953Z,1.45
2023-05-29T11:03:31.670Z,1.85
2023-05-29T11:06:00.373Z,1.85
2023-05-29T11:08:49.225Z,1.88
2023-05-29T11:11:28.706Z,1.60
2023-05-29T11:13:56.829Z,1.50
2023-05-29T11:16:30.145Z,1.65
2023-05-29T11:19:00.327Z,1.33
2023-05-29T11:23:55.396Z,1.55
2023-05-29T11:26:25.067Z,1.90
2023-05-29T11:28:52.283Z,1.70
2023-05-29T11:31:20.670Z,1.77
2023-05-29T11:33:51.936Z,1.67
2023-05-29T11:36:20.834Z,1.35
2023-05-29T11:38:48.063Z,1.45
2023-05-29T11:41:15.352Z,2.72
2023-05-29T11:43:42.536Z,1.95
2023-05-29T11:46:19.814Z,1.98
2023-05-29T11:48:47.913Z,5.07
2023-05-29T11:51:15.294Z,1.60
2023-05-29T11:53:45.700Z,1.70
2023-05-29T11:56:12.986Z,3.53
2023-05-29T11:58:40.720Z,1.50
2023-05-29T12:01:09.032Z,1.40
2023-05-29T12:03:43.122Z,1.48
2023-05-29T12:06:11.700Z,1.88
2023-05-29T12:08:39.347Z,1.70
2023-05-29T12:11:06.839Z,1.23
2023-05-29T12:13:34.144Z,1.50
2023-05-29T12:16:03.658Z,1.48
2023-05-29T12:18:31.064Z,1.42
2023-05-29T12:20:59.270Z,1.50
2023-05-29T12:23:26.461Z,1.58
2023-05-29T12:25:54.429Z,1.52
2023-05-29T12:28:22.577Z,1.55
2023-05-29T12:30:50.971Z,1.65
2023-05-29T12:33:29.422Z,1.70
2023-05-29T12:35:57.157Z,1.55
2023-05-29T12:38:25.407Z,1.60
2023-05-29T12:40:53.363Z,1.80
2023-05-29T12:43:20.526Z,1.60
2023-05-29T12:45:48.210Z,1.88
2023-05-29T12:48:15.443Z,1.60
2023-05-29T12:50:42.852Z,1.25
2023-05-29T12:53:14.971Z,1.40
2023-05-29T12:55:43.262Z,1.63
2023-05-29T12:58:16.700Z,2.55
2023-05-29T13:00:44.608Z,1.40
2023-05-29T13:03:12.518Z,1.67
2023-05-29T13:05:40.370Z,1.40
2023-05-29T13:08:09.058Z,1.77
2023-05-29T13:10:36.884Z,1.23
2023-05-29T13:13:04.453Z,1.60
2023-05-29T13:15:34.168Z,1.38
2023-05-29T13:18:01.740Z,1.17
2023-05-29T13:20:29.549Z,1.55
2023-05-29T13:22:56.778Z,1.40
2023-05-29T13:25:25.108Z,1.05
2023-05-29T13:27:52.488Z,1.50
2023-05-29T13:30:19.833Z,1.30
2023-05-29T13:32:47.046Z,1.35
2023-05-29T13:35:14.213Z,1.40
2023-05-29T13:37:41.659Z,1.33
2023-05-29T13:40:12.415Z,1.58
2023-05-29T13:42:40.241Z,1.55
2023-05-29T13:45:08.468Z,1.38
2023-05-29T13:47:36.115Z,1.45
2023-05-29T13:50:03.436Z,1.45
2023-05-29T13:52:30.767Z,1.52
2023-05-29T13:55:00.484Z,1.50
2023-05-29T13:57:28.827Z,1.25
2023-05-29T13:59:56.616Z,1.60
2023-05-29T14:02:24.016Z,1.70
2023-05-29T14:04:51.564Z,1.30
2023-05-29T14:07:18.810Z,1.15
2023-05-29T14:09:45.956Z,1.02
2023-05-29T14:12:13.074Z,1.45
2023-05-29T14:14:40.313Z,1.38
2023-05-29T14:17:07.814Z,1.48
2023-05-29T14:19:34.975Z,1.55
2023-05-29T14:22:02.391Z,1.30
2023-05-29T14:24:29.559Z,1.40
2023-05-29T14:26:56.680Z,1.38
2023-05-29T14:29:23.840Z,1.45
2023-05-29T14:31:51.027Z,1.30
2023-05-29T14:34:18.242Z,1.25
2023-05-29T14:36:45.914Z,1.27
2023-05-29T14:39:13.570Z,1.30
2023-05-29T14:41:40.989Z,1.15
2023-05-29T14:44:08.217Z,1.50
2023-05-29T14:46:35.879Z,1.30
2023-05-29T14:49:03.076Z,1.20
2023-05-29T14:51:30.276Z,1.10
2023-05-29T14:53:57.443Z,1.23
2023-05-29T14:56:24.664Z,1.30
2023-05-29T14:58:53.443Z,1.40
2023-05-29T15:01:21.496Z,1.48
2023-05-29T15:03:48.787Z,1.20
2023-05-29T15:06:15.973Z,1.52
2023-05-29T15:08:44.502Z,1.40
2023-05-29T15:11:13.819Z,1.30
2023-05-29T15:13:41.338Z,1.33
2023-05-29T15:16:09.234Z,1.00
2023-05-29T15:18:36.890Z,1.20
2023-05-29T15:21:04.591Z,0.98
2023-05-29T15:23:35.053Z,1.27
2023-05-29T15:26:02.369Z,1.65
2023-05-29T15:28:29.578Z,2.03
2023-05-29T15:30:56.781Z,1.38
2023-05-29T15:33:24.191Z,1.10
2023-05-29T15:35:51.522Z,1.40
2023-05-29T15:38:18.726Z,1.50
2023-05-29T15:40:45.845Z,1.50
2023-05-29T15:43:13.055Z,1.30
2023-05-29T15:45:40.287Z,1.33
2023-05-29T15:48:08.174Z,1.38
2023-05-29T15:50:35.536Z,1.70
2023-05-29T15:53:02.676Z,1.70
2023-05-29T15:55:29.825Z,1.10
2023-05-29T15:57:57.074Z,1.85
2023-05-29T16:00:24.256Z,1.30
2023-05-29T16:02:51.620Z,1.63
2023-05-29T16:05:19.056Z,1.40
2023-05-29T16:07:49.329Z,1.55
2023-05-29T16:10:17.287Z,1.50
2023-05-29T16:12:46.466Z,1.65
2023-05-29T16:15:13.638Z,1.60
2023-05-29T16:17:41.715Z,1.80
2023-05-29T16:20:09.260Z,1.50
2023-05-29T16:22:41.973Z,1.50
2023-05-29T16:25:10.139Z,1.70
2023-05-29T16:27:37.497Z,2.55
2023-05-29T16:30:05.066Z,2.05
2023-05-29T16:32:32.652Z,1.67
2023-05-29T16:34:59.864Z,1.48
2023-05-29T16:37:27.314Z,1.90
2023-05-29T16:39:54.705Z,1.63
2023-05-29T16:42:22.045Z,2.30
2023-05-29T16:44:52.865Z,1.70
2023-05-29T16:47:20.808Z,1.40
2023-05-29T16:49:48.724Z,1.70
2023-05-29T16:52:20.377Z,1.40
2023-05-29T16:54:49.070Z,1.95
2023-05-29T16:57:19.508Z,1.73
2023-05-29T16:59:46.999Z,1.77
2023-05-29T17:02:14.387Z,1.90
2023-05-29T17:04:41.607Z,1.60
2023-05-29T17:07:08.839Z,1.70
2023-05-29T17:09:36.360Z,1.80
2023-05-29T17:12:04.049Z,1.95
2023-05-29T17:14:31.664Z,2.10
2023-05-29T17:16:58.837Z,1.63
2023-05-29T17:19:26.068Z,1.55
2023-05-29T17:21:53.222Z,1.50
2023-05-29T17:24:20.782Z,1.65
2023-05-29T17:26:47.915Z,1.63
2023-05-29T17:29:16.782Z,2.00
2023-05-29T17:31:44.420Z,1.70
2023-05-29T17:34:11.958Z,1.73
2023-05-29T17:36:39.175Z,1.80
2023-05-29T17:39:06.338Z,1.80
2023-05-29T17:41:33.607Z,2.28
2023-05-29T17:44:00.806Z,2.30
2023-05-29T17:46:28.072Z,1.63
2023-05-29T17:48:55.295Z,1.48
2023-05-29T17:51:23.358Z,2.10
2023-05-29T17:53:51.052Z,1.90
2023-05-29T17:56:21.037Z,2.22
2023-05-29T17:58:50.184Z,2.03
2023-05-29T18:01:18.320Z,3.50
2023-05-29T18:03:45.733Z,8.05
2023-05-29T18:06:12.951Z,2.35
2023-05-29T18:08:40.212Z,2.10
2023-05-29T18:11:07.373Z,2.17
2023-05-29T18:13:34.520Z,1.75
2023-05-29T18:16:01.668Z,2.15
2023-05-29T18:18:28.836Z,2.28
2023-05-29T18:20:56.237Z,2.15
2023-05-29T18:23:23.334Z,2.63
2023-05-29T18:25:50.624Z,2.00
2023-05-29T18:28:18.039Z,2.08
2023-05-29T18:30:45.378Z,2.47
2023-05-29T18:33:12.620Z,2.30
2023-05-29T18:35:39.983Z,2.10
2023-05-29T18:38:07.260Z,2.08
2023-05-29T18:40:34.950Z,2.20
2023-05-29T18:43:02.113Z,2.00
2023-05-29T18:45:29.370Z,2.50
2023-05-29T18:47:56.843Z,2.40
2023-05-29T18:50:24.020Z,2.45
2023-05-29T18:52:52.338Z,2.70
2023-05-29T18:55:19.536Z,2.55
2023-05-29T18:57:46.709Z,2.42
2023-05-29T19:00:14.397Z,2.30
2023-05-29T19:02:42.157Z,2.95
2023-05-29T19:05:09.662Z,2.53
2023-05-29T19:07:38.164Z,2.88
2023-05-29T19:10:06.100Z,2.70
2023-05-29T19:12:33.249Z,2.85
2023-05-29T19:15:00.440Z,2.70
2023-05-29T19:17:27.868Z,2.50
2023-05-29T19:19:55.058Z,2.33
2023-05-29T19:22:22.242Z,2.70
2023-05-29T19:24:50.117Z,2.63
2023-05-29T19:27:17.507Z,2.97
2023-05-29T19:29:44.896Z,3.05
2023-05-29T19:32:12.267Z,2.50
2023-05-29T19:34:40.900Z,2.97
2023-05-29T19:37:08.949Z,3.10
2023-05-29T19:39:36.394Z,2.90
2023-05-29T19:42:07.509Z,2.80
2023-05-29T19:44:34.929Z,2.95
2023-05-29T19:47:02.156Z,2.75
2023-05-29T19:49:29.366Z,2.90
2023-05-29T19:52:00.116Z,2.50
2023-05-29T19:54:27.392Z,2.75
2023-05-29T19:56:54.859Z,2.90
2023-05-29T19:59:22.139Z,2.45
2023-05-29T20:01:49.635Z,2.83
2023-05-29T20:04:16.822Z,3.00
2023-05-29T20:06:44.504Z,2.88
2023-05-29T20:09:11.746Z,2.90
2023-05-29T20:11:39.958Z,2.95
2023-05-29T20:14:07.222Z,3.10
2023-05-29T20:16:34.315Z,2.75
2023-05-29T20:19:01.427Z,2.95
2023-05-29T20:21:28.578Z,2.88
2023-05-29T20:23:55.769Z,3.35
2023-05-29T20:26:23.183Z,2.53
2023-05-29T20:28:53.187Z,3.13
2023-05-29T20:31:20.668Z,3.43
2023-05-29T20:33:47.888Z,2.92
2023-05-29T20:36:15.085Z,3.00
2023-05-29T20:38:44.308Z,2.95
2023-05-29T20:41:12.760Z,2.78
2023-05-29T20:43:40.174Z,2.50
2023-05-29T20:46:09.176Z,3.20
2023-05-29T20:48:36.527Z,3.30
2023-05-29T20:51:04.586Z,2.90
2023-05-29T20:53:32.022Z,2.90
2023-05-29T20:55:59.312Z,2.95
2023-05-29T20:58:26.964Z,3.65
2023-05-29T21:00:54.129Z,3.10
2023-05-29T21:03:24.349Z,3.45
2023-05-29T21:05:52.374Z,2.60
2023-05-29T21:08:19.639Z,2.80
2023-05-29T21:10:46.940Z,3.13
2023-05-29T21:13:22.010Z,2.47
2023-05-29T21:15:50.946Z,2.78
2023-05-29T21:18:18.417Z,2.67
2023-05-29T21:20:45.686Z,2.45
2023-05-29T21:23:14.775Z,2.28
2023-05-29T21:25:42.370Z,2.22
2023-05-29T21:28:09.737Z,2.50
2023-05-29T21:30:37.211Z,2.55
2023-05-29T21:33:05.320Z,2.92
2023-05-29T21:35:33.171Z,2.80
2023-05-29T21:38:00.570Z,2.30
2023-05-29T21:40:27.715Z,2.90
2023-05-29T21:42:56.909Z,2.55
2023-05-29T21:45:24.458Z,2.50
2023-05-29T21:47:51.862Z,2.40
2023-05-29T21:50:19.576Z,2.65
2023-05-29T21:52:47.473Z,2.85
2023-05-29T21:55:14.767Z,3.00
2023-05-29T21:57:41.948Z,2.58
2023-05-29T22:00:11.123Z,3.05
2023-05-29T22:02:38.573Z,2.78
2023-05-29T22:05:07.217Z,2.90
2023-05-29T22:07:34.332Z,3.30
2023-05-29T22:10:02.239Z,2.50
2023-05-29T22:12:29.592Z,2.78
2023-05-29T22:14:56.856Z,3.00
2023-05-29T22:17:24.960Z,2.72
2023-05-29T22:19:52.392Z,3.15
2023-05-29T22:22:19.617Z,3.03
2023-05-29T22:24:49.452Z,3.00
2023-05-29T22:27:17.853Z,3.00
2023-05-29T22:29:44.970Z,2.90
2023-05-29T22:32:12.909Z,2.58
2023-05-29T22:34:40.020Z,2.80
2023-05-29T22:37:07.598Z,2.95
2023-05-29T22:39:35.332Z,2.47
2023-05-29T22:42:03.372Z,2.95
2023-05-29T22:44:31.664Z,2.72
2023-05-29T22:46:58.871Z,2.83
2023-05-29T22:49:25.959Z,2.80
2023-05-29T22:51:53.065Z,2.63
2023-05-29T22:54:21.467Z,2.70
2023-05-29T22:56:48.627Z,2.90
2023-05-29T22:59:15.754Z,2.67
2023-05-29T23:01:44.085Z,2.47
2023-05-29T23:04:11.238Z,2.60
2023-05-29T23:06:40.425Z,2.28
2023-05-29T23:09:08.057Z,2.70
2023-05-29T23:11:35.201Z,2.50
2023-05-29T23:14:02.353Z,2.30
2023-05-29T23:16:29.620Z,2.35
2023-05-29T23:18:57.008Z,2.78
2023-05-29T23:21:24.295Z,2.60
2023-05-29T23:23:52.019Z,2.92
2023-05-29T23:26:19.167Z,2.67
2023-05-29T23:28:46.517Z,2.90
2023-05-29T23:31:13.787Z,2.22
2023-05-29T23:33:41.356Z,2.97
2023-05-29T23:36:09.050Z,2.67
2023-05-29T23:38:36.169Z,2.50
2023-05-29T23:41:03.664Z,2.63
2023-05-29T23:43:30.995Z,2.75
2023-05-29T23:45:58.164Z,2.53
2023-05-29T23:48:25.299Z,2.42
2023-05-29T23:50:52.495Z,2.75
2023-05-29T23:53:19.947Z,3.40
2023-05-29T23:55:47.029Z,2.90
2023-05-29T23:58:14.174Z,6.68
